Time;durP1;ratioP1;P1;durP2;ratioP2;P2;SDS_P1;SDS_P2;PMS_P1;PMS_P2;Temp;Humidity;BMP_temperature;BMP_pressure;BME280_temperature;BME280_humidity;BME280_pressure;Samples;Min_cycle;Max_cycle;Signal;HPM_P1;HPM_P2
2021/05/09 00:00:32;;;;;;;1.30;1.13;;;;;;;13.00;46.10;100136.28;5026066;28;20179;-91
2021/05/09 00:03:02;;;;;;;2.27;1.37;;;;;;;13.03;46.02;100137.88;5036949;28;20233;-91
2021/05/09 00:05:29;;;;;;;1.30;1.17;;;;;;;13.06;46.32;100141.16;5039539;28;20182;-91
2021/05/09 00:07:55;;;;;;;1.43;1.20;;;;;;;13.10;46.13;100128.34;5038296;28;20210;-90
2021/05/09 00:10:21;;;;;;;1.83;1.27;;;;;;;13.11;46.27;100130.91;5048150;28;20229;-89
2021/05/09 00:12:50;;;;;;;2.40;1.20;;;;;;;13.13;45.96;100125.44;5036516;28;20220;-90
2021/05/09 00:15:21;;;;;;;1.73;1.07;;;;;;;13.13;45.96;100120.94;5034458;28;20206;-90
2021/05/09 00:17:47;;;;;;;2.97;1.20;;;;;;;13.15;45.90;100119.03;5038489;28;20221;-90
2021/05/09 00:20:14;;;;;;;1.30;1.20;;;;;;;13.15;46.18;100116.34;5037934;28;20226;-90
2021/05/09 00:22:40;;;;;;;3.00;1.23;;;;;;;13.17;46.23;100111.72;5031609;28;20250;-90
2021/05/09 00:25:11;;;;;;;1.97;1.10;;;;;;;13.17;46.31;100122.41;5018300;28;20213;-89
2021/05/09 00:27:37;;;;;;;1.50;1.23;;;;;;;13.19;46.12;100127.66;5019058;28;20254;-90
2021/05/09 00:30:05;;;;;;;1.43;1.10;;;;;;;13.20;46.28;100124.84;5013598;28;20238;-90
2021/05/09 00:32:31;;;;;;;1.90;0.90;;;;;;;13.20;46.00;100132.03;5016937;28;20225;-90
2021/05/09 00:34:57;;;;;;;1.33;1.10;;;;;;;13.22;46.01;100123.88;5016062;28;20211;-89
2021/05/09 00:37:23;;;;;;;1.43;0.97;;;;;;;13.20;46.14;100135.53;5012984;28;20210;-90
2021/05/09 00:39:51;;;;;;;1.80;1.23;;;;;;;13.23;46.07;100130.91;5020020;28;20285;-90
2021/05/09 00:42:18;;;;;;;1.20;1.10;;;;;;;13.20;46.29;100129.34;5015708;28;20696;-90
2021/05/09 00:44:44;;;;;;;0.97;0.90;;;;;;;13.22;46.15;100134.56;5022260;28;20199;-90
2021/05/09 00:47:13;;;;;;;0.93;0.93;;;;;;;13.25;46.46;100131.66;5013589;28;20318;-90
2021/05/09 00:49:40;;;;;;;1.93;1.20;;;;;;;13.25;46.10;100128.97;5018325;28;20286;-90
2021/05/09 00:52:08;;;;;;;1.93;1.10;;;;;;;13.27;46.45;100129.66;5016572;28;20297;-90
2021/05/09 00:54:37;;;;;;;1.17;0.90;;;;;;;13.28;46.38;100126.88;5012813;28;20211;-90
2021/05/09 00:57:05;;;;;;;2.60;1.57;;;;;;;13.29;46.30;100133.06;5018023;28;20285;-89
2021/05/09 00:59:36;;;;;;;1.40;1.00;;;;;;;13.28;46.39;100132.22;5017966;28;20289;-90
2021/05/09 01:02:02;;;;;;;2.07;1.23;;;;;;;13.27;46.24;100130.50;5016524;28;20768;-90
2021/05/09 01:04:32;;;;;;;1.20;1.10;;;;;;;13.29;46.51;100128.56;5015691;28;20237;-88
2021/05/09 01:06:59;;;;;;;2.67;1.23;;;;;;;13.29;46.27;100128.56;5012624;28;20361;-89
2021/05/09 01:09:25;;;;;;;1.30;1.20;;;;;;;13.29;46.42;100117.88;5018575;28;20211;-89
2021/05/09 01:11:51;;;;;;;1.67;1.40;;;;;;;13.31;46.67;100117.75;5032700;28;20279;-88
2021/05/09 01:14:18;;;;;;;1.77;1.10;;;;;;;13.32;46.45;100128.31;5017214;28;20218;-89
2021/05/09 01:16:45;;;;;;;1.20;1.10;;;;;;;13.34;46.55;100112.16;5012625;28;20207;-90
2021/05/09 01:19:11;;;;;;;1.40;1.00;;;;;;;13.32;46.54;100120.28;5003312;28;20217;-89
2021/05/09 01:21:39;;;;;;;1.63;1.00;;;;;;;13.32;46.67;100116.78;5020719;28;20681;-90
2021/05/09 01:24:05;;;;;;;1.07;1.00;;;;;;;13.33;46.97;100121.16;5026724;28;20302;-89
2021/05/09 01:26:31;;;;;;;1.30;1.10;;;;;;;13.31;46.76;100117.75;5022354;28;20214;-89
2021/05/09 01:28:58;;;;;;;1.43;1.00;;;;;;;13.33;46.81;100113.13;5013084;28;20195;-89
2021/05/09 01:31:24;;;;;;;3.20;1.13;;;;;;;13.31;47.06;100107.06;5020562;28;20326;-90
2021/05/09 01:33:53;;;;;;;2.17;1.27;;;;;;;13.31;47.08;100107.91;5012156;28;20282;-89
2021/05/09 01:36:19;;;;;;;1.20;1.10;;;;;;;13.29;47.26;100109.00;5012293;28;20226;-90
2021/05/09 01:38:46;;;;;;;2.33;1.10;;;;;;;13.30;47.24;100102.69;5016886;28;20215;-89
2021/05/09 01:41:12;;;;;;;1.10;1.00;;;;;;;13.28;47.06;100104.63;5012541;28;20256;-89
2021/05/09 01:43:39;;;;;;;1.40;1.30;;;;;;;13.25;47.11;100103.09;5011895;28;20218;-89
2021/05/09 01:46:05;;;;;;;2.10;1.20;;;;;;;13.23;47.25;100102.34;5017832;28;20237;-89
2021/05/09 01:48:32;;;;;;;1.73;0.90;;;;;;;13.20;47.51;100098.09;5029254;28;20661;-89
2021/05/09 01:50:58;;;;;;;1.43;1.30;;;;;;;13.20;47.42;100108.81;5012615;28;20227;-89
2021/05/09 01:53:24;;;;;;;2.57;1.23;;;;;;;13.20;47.77;100099.94;5008681;28;20731;-90
2021/05/09 01:55:51;;;;;;;1.50;1.40;;;;;;;13.18;47.66;100104.56;5012834;28;20210;-89
2021/05/09 01:58:18;;;;;;;2.30;1.03;;;;;;;13.15;47.46;100099.44;5034903;28;20202;-91
2021/05/09 02:00:44;;;;;;;1.83;1.00;;;;;;;13.14;47.90;100100.41;5046509;28;20215;-89
2021/05/09 02:03:12;;;;;;;2.30;1.33;;;;;;;13.14;47.56;100103.06;5053319;28;20221;-89
2021/05/09 02:05:38;;;;;;;1.23;1.10;;;;;;;13.12;47.78;100105.00;5017258;28;20289;-89
2021/05/09 02:08:04;;;;;;;2.33;1.30;;;;;;;13.11;48.09;100108.66;5015815;28;20290;-90
2021/05/09 02:10:31;;;;;;;1.20;1.10;;;;;;;13.10;47.73;100110.50;5015681;28;20199;-89
2021/05/09 02:12:59;;;;;;;2.33;1.37;;;;;;;13.08;48.16;100099.06;5015992;28;20207;-89
2021/05/09 02:15:25;;;;;;;1.80;1.17;;;;;;;13.10;48.47;100098.94;5015601;28;20685;-89
2021/05/09 02:17:51;;;;;;;2.60;1.13;;;;;;;13.11;48.56;100096.16;5015737;28;20237;-89
2021/05/09 02:20:18;;;;;;;1.30;1.20;;;;;;;13.12;48.65;100097.84;5015898;28;20243;-90
2021/05/09 02:22:44;;;;;;;1.47;1.30;;;;;;;13.14;48.60;100103.06;5014529;28;20636;-89
2021/05/09 02:25:10;;;;;;;1.93;1.37;;;;;;;13.14;48.68;100093.22;5015283;28;20282;-89
2021/05/09 02:27:37;;;;;;;2.03;1.17;;;;;;;13.14;48.90;100089.69;5015918;28;20571;-89
2021/05/09 02:30:10;;;;;;;2.10;1.30;;;;;;;13.13;48.97;100096.03;5018422;28;20222;-89
2021/05/09 02:32:36;;;;;;;1.10;1.00;;;;;;;13.12;48.96;100097.84;5014815;28;20226;-90
2021/05/09 02:35:03;;;;;;;3.40;1.00;;;;;;;13.10;48.78;100085.56;5015328;28;20207;-89
2021/05/09 02:37:29;;;;;;;1.63;1.00;;;;;;;13.10;48.90;100094.44;5015555;28;20194;-89
2021/05/09 02:39:55;;;;;;;1.40;1.20;;;;;;;13.11;48.99;100088.13;5015416;28;20249;-89
2021/05/09 02:42:21;;;;;;;1.70;1.07;;;;;;;13.10;48.97;100086.44;5014473;28;20231;-89
2021/05/09 02:44:47;;;;;;;2.27;1.40;;;;;;;13.11;49.26;100095.28;5015365;28;20259;-89
2021/05/09 02:47:27;;;;;;;1.50;1.23;;;;;;;13.13;49.26;100082.66;5014955;28;20242;-89
2021/05/09 02:49:54;;;;;;;1.63;1.13;;;;;;;13.13;49.27;100088.84;5016244;28;20571;-89
2021/05/09 02:52:22;;;;;;;1.73;1.10;;;;;;;13.13;49.51;100090.66;5014700;28;20765;-89
2021/05/09 02:54:49;;;;;;;1.30;1.17;;;;;;;13.15;49.12;100094.97;5012819;28;20199;-89
2021/05/09 02:57:15;;;;;;;1.77;1.43;;;;;;;13.14;49.51;100098.56;5015292;28;20717;-89
2021/05/09 02:59:41;;;;;;;1.73;1.37;;;;;;;13.14;49.53;100100.41;5014722;28;20268;-89
2021/05/09 03:02:10;;;;;;;2.90;1.80;;;;;;;13.12;49.85;100100.53;5014127;28;20239;-89
2021/05/09 03:04:37;;;;;;;1.27;1.17;;;;;;;13.13;49.60;100102.22;5014330;28;20286;-90
2021/05/09 03:07:03;;;;;;;2.27;1.83;;;;;;;13.13;49.39;100098.69;5032545;28;20258;-91
2021/05/09 03:09:29;;;;;;;4.20;1.93;;;;;;;13.12;49.63;100099.66;5040222;28;20187;-90
2021/05/09 03:11:56;;;;;;;5.13;2.37;;;;;;;13.10;49.48;100101.63;5029185;28;20223;-88
2021/05/09 03:14:22;;;;;;;3.43;2.23;;;;;;;13.06;49.51;100101.03;5008432;28;20662;-89
2021/05/09 03:16:48;;;;;;;4.23;1.80;;;;;;;13.04;49.75;100103.00;5013607;28;20203;-89
2021/05/09 03:19:14;;;;;;;2.87;1.80;;;;;;;13.01;49.99;100094.38;5014477;28;20666;-89
2021/05/09 03:21:43;;;;;;;3.23;1.70;;;;;;;12.97;50.18;100096.44;5013842;28;20226;-89
2021/05/09 03:24:10;;;;;;;2.97;1.30;;;;;;;12.93;50.41;100103.00;5011134;28;20627;-89
2021/05/09 03:26:39;;;;;;;1.87;1.40;;;;;;;12.89;50.42;100092.72;5014758;28;20260;-89
2021/05/09 03:29:05;;;;;;;2.50;1.40;;;;;;;12.84;50.56;100095.75;5017178;28;20203;-89
2021/05/09 03:31:32;;;;;;;1.53;1.30;;;;;;;12.79;50.78;100097.94;5019906;28;20317;-90
2021/05/09 03:33:58;;;;;;;1.80;1.20;;;;;;;12.74;51.20;100094.78;5020950;28;20242;-89
2021/05/09 03:36:25;;;;;;;2.00;1.20;;;;;;;12.68;51.12;100087.28;5014369;28;21052;-89
2021/05/09 03:38:52;;;;;;;1.63;1.27;;;;;;;12.64;51.26;100083.16;5013893;28;20295;-89
2021/05/09 03:41:20;;;;;;;2.10;1.13;;;;;;;12.60;51.40;100087.88;5014299;28;20250;-89
2021/05/09 03:43:49;;;;;;;1.83;1.30;;;;;;;12.56;51.64;100088.25;5013252;28;20718;-89
2021/05/09 03:46:16;;;;;;;1.93;1.30;;;;;;;12.54;51.78;100082.22;5013948;28;20211;-89
2021/05/09 03:48:42;;;;;;;2.40;1.30;;;;;;;12.48;51.73;100079.06;5014013;28;20243;-89
2021/05/09 03:51:08;;;;;;;1.30;1.20;;;;;;;12.48;52.15;100076.38;5013842;28;20672;-89
2021/05/09 03:53:35;;;;;;;3.20;1.90;;;;;;;12.46;52.24;100080.16;5013284;28;20206;-89
2021/05/09 03:56:02;;;;;;;1.80;1.60;;;;;;;12.43;52.63;100075.03;5014131;28;20249;-89
2021/05/09 03:58:28;;;;;;;1.87;1.20;;;;;;;12.41;52.45;100067.16;5013740;28;20211;-91
2021/05/09 04:00:54;;;;;;;2.57;1.63;;;;;;;12.41;52.69;100074.31;5013936;28;20322;-90
2021/05/09 04:03:23;;;;;;;7.20;1.80;;;;;;;12.40;52.41;100075.28;5017053;28;20241;-91
2021/05/09 04:05:51;;;;;;;3.27;1.80;;;;;;;12.40;52.47;100077.94;5020538;28;20616;-90
2021/05/09 04:08:20;;;;;;;2.70;2.10;;;;;;;12.40;52.65;100078.81;5016796;28;20218;-90
2021/05/09 04:10:46;;;;;;;3.63;1.60;;;;;;;12.40;52.53;100081.47;5014226;28;20241;-90
2021/05/09 04:13:14;;;;;;;2.00;1.50;;;;;;;12.40;52.67;100078.81;5012901;28;20290;-90
2021/05/09 04:15:41;;;;;;;1.97;1.57;;;;;;;12.40;52.80;100070.78;5012495;28;20293;-90
2021/05/09 04:18:07;;;;;;;2.17;1.53;;;;;;;12.40;52.83;100073.47;5013305;28;20207;-89
2021/05/09 04:20:34;;;;;;;2.53;1.53;;;;;;;12.42;52.65;100079.53;5013124;28;20645;-90
2021/05/09 04:23:08;;;;;;;1.10;1.00;;;;;;;12.42;53.07;100074.19;5012895;28;20692;-90
2021/05/09 04:25:34;;;;;;;2.90;1.60;;;;;;;12.44;52.81;100076.75;5012900;28;20198;-90
2021/05/09 04:28:00;;;;;;;4.20;1.40;;;;;;;12.46;52.74;100078.31;5013079;28;20689;-90
2021/05/09 04:30:27;;;;;;;2.07;1.20;;;;;;;12.46;52.83;100072.13;5012706;28;20233;-89
2021/05/09 04:33:00;;;;;;;1.97;1.33;;;;;;;12.49;52.62;100080.75;5012784;28;20285;-90
2021/05/09 04:35:26;;;;;;;1.37;1.23;;;;;;;12.52;52.83;100066.31;5022872;28;20310;-90
2021/05/09 04:37:52;;;;;;;0.90;0.90;;;;;;;12.54;52.69;100076.88;5037071;28;20213;-91
2021/05/09 04:40:19;;;;;;;1.20;1.10;;;;;;;12.54;52.78;100067.00;5054630;28;20213;-90
2021/05/09 04:42:45;;;;;;;2.80;1.10;;;;;;;12.59;52.40;100074.66;5055516;28;20242;-90
2021/05/09 04:45:12;;;;;;;1.27;1.10;;;;;;;12.59;52.55;100061.31;5020164;28;20202;-89
2021/05/09 04:47:44;;;;;;;1.87;1.03;;;;;;;12.61;52.53;100064.69;5014546;28;20258;-89
2021/05/09 04:50:14;;;;;;;1.80;1.00;;;;;;;12.61;52.60;100065.53;5014614;28;20298;-90
2021/05/09 04:52:40;;;;;;;1.17;1.07;;;;;;;12.63;52.36;100063.59;5025280;28;20282;-89
2021/05/09 04:55:07;;;;;;;1.50;1.40;;;;;;;12.64;52.62;100072.47;5017162;28;20208;-89
2021/05/09 04:57:34;;;;;;;2.47;1.20;;;;;;;12.65;52.58;100084.84;5017561;28;20198;-89
2021/05/09 05:00:02;;;;;;;1.77;1.30;;;;;;;12.66;52.69;100070.53;5017341;28;20323;-90
2021/05/09 05:02:28;;;;;;;2.03;1.20;;;;;;;12.66;52.77;100070.53;5012133;28;20227;-89
2021/05/09 05:04:56;;;;;;;1.40;1.30;;;;;;;12.65;52.61;100068.81;5016342;28;20688;-89
2021/05/09 05:07:23;;;;;;;1.50;1.20;;;;;;;12.69;52.71;100078.31;5008970;28;20232;-90
2021/05/09 05:09:50;;;;;;;1.80;1.50;;;;;;;12.70;52.57;100074.66;5009305;28;20678;-90
2021/05/09 05:12:16;;;;;;;1.30;1.20;;;;;;;12.73;52.79;100075.22;5012316;28;20229;-90
2021/05/09 05:14:43;;;;;;;1.40;1.20;;;;;;;12.79;52.54;100066.72;5013954;28;20315;-90
2021/05/09 05:17:10;;;;;;;2.67;1.20;;;;;;;12.86;52.85;100069.75;5013673;28;20673;-90
2021/05/09 05:19:36;;;;;;;1.53;1.20;;;;;;;12.93;52.53;100070.94;5013423;28;20668;-90
2021/05/09 05:22:04;;;;;;;1.90;1.30;;;;;;;13.00;52.58;100074.81;5013304;28;20657;-90
2021/05/09 05:24:32;;;;;;;1.57;1.20;;;;;;;13.07;52.55;100068.00;5012627;28;20216;-90
2021/05/09 05:26:59;;;;;;;3.93;1.30;;;;;;;13.15;52.52;100073.56;5013911;28;20199;-91
2021/05/09 05:29:25;;;;;;;1.03;0.90;;;;;;;13.24;52.21;100076.47;5021908;28;20202;-91
2021/05/09 05:31:51;;;;;;;1.97;1.10;;;;;;;13.31;52.15;100061.59;5020030;28;20226;-91
2021/05/09 05:34:18;;;;;;;3.90;1.70;;;;;;;13.40;51.50;100071.53;5024073;28;20207;-91
2021/05/09 05:36:44;;;;;;;1.50;1.40;;;;;;;13.49;51.25;100068.06;5026740;28;20695;-91
2021/05/09 05:39:12;;;;;;;1.27;1.17;;;;;;;13.60;51.26;100065.34;5027735;28;20210;-92
2021/05/09 05:41:38;;;;;;;1.83;1.10;;;;;;;13.72;51.13;100060.75;5032948;28;20244;-92
2021/05/09 05:44:06;;;;;;;2.00;1.20;;;;;;;13.85;51.13;100061.38;5030000;28;20242;-92
2021/05/09 05:46:32;;;;;;;2.37;1.60;;;;;;;13.97;51.20;100065.72;5027900;28;20222;-91
2021/05/09 05:48:59;;;;;;;1.30;1.17;;;;;;;14.12;50.85;100072.41;5025791;28;20203;-91
2021/05/09 05:51:25;;;;;;;1.70;1.40;;;;;;;14.22;50.32;100064.41;5024346;28;20234;-91
2021/05/09 05:53:55;;;;;;;1.27;1.17;;;;;;;14.35;50.14;100059.66;5026475;28;20342;-92
2021/05/09 05:56:22;;;;;;;2.23;1.60;;;;;;;14.50;49.77;100068.22;5028990;28;20207;-92
2021/05/09 05:58:50;;;;;;;1.63;1.23;;;;;;;14.64;49.64;100066.97;5021689;28;20294;-92
2021/05/09 06:01:17;;;;;;;1.43;1.20;;;;;;;14.82;49.44;100070.69;5021636;28;20311;-92
2021/05/09 06:03:43;;;;;;;1.93;1.07;;;;;;;14.98;49.37;100073.69;5020297;28;20230;-92
2021/05/09 06:06:14;;;;;;;1.80;1.27;;;;;;;15.14;48.71;100065.91;5019041;28;20210;-92
2021/05/09 06:08:42;;;;;;;1.90;1.27;;;;;;;15.31;48.53;100066.22;5028039;28;20226;-93
2021/05/09 06:11:08;;;;;;;1.53;1.33;;;;;;;15.47;48.37;100064.66;5038627;28;20207;-93
2021/05/09 06:13:35;;;;;;;2.53;1.27;;;;;;;15.63;48.34;100064.09;5034814;28;20211;-91
2021/05/09 06:16:01;;;;;;;1.70;1.20;;;;;;;15.76;47.42;100066.50;5020382;28;20206;-91
2021/05/09 06:18:27;;;;;;;1.10;1.00;;;;;;;15.88;47.05;100068.84;5017870;28;20211;-92
2021/05/09 06:20:54;;;;;;;1.20;1.10;;;;;;;16.02;47.08;100074.75;5021646;28;20226;-92
2021/05/09 06:23:22;;;;;;;1.30;1.10;;;;;;;16.18;46.43;100072.28;5023890;28;20222;-92
2021/05/09 06:25:49;;;;;;;1.57;1.10;;;;;;;16.31;46.09;100080.84;5018840;28;20218;-92
2021/05/09 06:28:15;;;;;;;1.47;1.00;;;;;;;16.45;46.02;100075.03;5018283;28;20212;-92
2021/05/09 06:30:45;;;;;;;1.40;1.10;;;;;;;16.59;45.92;100071.84;5023539;28;20211;-92
2021/05/09 06:33:11;;;;;;;1.60;0.93;;;;;;;16.75;45.71;100076.59;5034087;28;20271;-92
2021/05/09 06:35:39;;;;;;;1.10;0.90;;;;;;;16.89;45.54;100075.22;5039909;28;20203;-92
2021/05/09 06:38:06;;;;;;;1.43;1.10;;;;;;;17.04;45.24;100078.22;5042656;28;20215;-91
2021/05/09 06:40:32;;;;;;;1.07;1.00;;;;;;;17.22;45.04;100079.94;5040488;28;20204;-92
2021/05/09 06:43:02;;;;;;;1.20;1.10;;;;;;;17.42;44.90;100088.69;5034712;28;20275;-91
2021/05/09 06:45:33;;;;;;;3.33;1.20;;;;;;;17.60;44.73;100086.84;5020117;28;20239;-91
2021/05/09 06:48:02;;;;;;;1.63;1.30;;;;;;;17.79;44.04;100083.16;5017285;28;20224;-91
2021/05/09 06:50:34;;;;;;;1.17;1.10;;;;;;;17.95;44.24;100074.34;5016357;28;20213;-91
2021/05/09 06:53:03;;;;;;;1.47;1.20;;;;;;;18.14;43.96;100084.91;5016216;28;20217;-91
2021/05/09 06:55:29;;;;;;;3.17;1.27;;;;;;;18.29;43.39;100085.16;5022444;28;20215;-91
2021/05/09 06:57:56;;;;;;;2.60;1.10;;;;;;;18.45;43.21;100087.91;5029443;28;20210;-91
2021/05/09 07:00:23;;;;;;;2.67;1.10;;;;;;;18.56;42.64;100084.97;5015906;28;20294;-91
2021/05/09 07:02:55;;;;;;;1.47;1.00;;;;;;;18.68;42.65;100083.69;5015324;28;20235;-91
2021/05/09 07:05:22;;;;;;;3.83;1.10;;;;;;;18.81;42.35;100079.69;5016771;28;21021;-92
2021/05/09 07:07:50;;;;;;;1.73;1.03;;;;;;;18.98;42.31;100079.59;5014920;28;20210;-91
2021/05/09 07:10:17;;;;;;;1.10;1.00;;;;;;;19.14;42.47;100070.66;5024128;28;20281;-91
2021/05/09 07:12:43;;;;;;;1.50;1.10;;;;;;;19.31;42.32;100068.84;5015606;28;20231;-92
2021/05/09 07:15:14;;;;;;;2.00;1.40;;;;;;;19.47;42.17;100073.41;5018980;28;20288;-93
2021/05/09 07:17:42;;;;;;;2.00;1.17;;;;;;;19.64;41.99;100075.13;5036999;28;20196;-91
2021/05/09 07:20:11;;;;;;;1.73;1.03;;;;;;;19.82;41.93;100078.47;5040080;28;20188;-93
2021/05/09 07:22:41;;;;;;;1.30;0.80;;;;;;;19.97;41.44;100075.94;5032644;28;20225;-91
2021/05/09 07:25:09;;;;;;;1.07;0.93;;;;;;;20.09;41.35;100075.38;5016864;28;20219;-91
2021/05/09 07:27:35;;;;;;;1.30;1.00;;;;;;;20.19;41.16;100071.66;5017515;28;20215;-92
2021/05/09 07:30:01;;;;;;;1.10;1.00;;;;;;;20.24;40.82;100066.59;5026737;28;20296;-92
2021/05/09 07:32:33;;;;;;;0.87;0.87;;;;;;;20.33;40.71;100074.50;5021744;28;20231;-93
2021/05/09 07:35:00;;;;;;;1.40;1.17;;;;;;;20.43;40.66;100080.56;5027279;28;20212;-92
2021/05/09 07:37:27;;;;;;;1.47;1.10;;;;;;;20.56;40.86;100073.78;5033142;28;20689;-93
2021/05/09 07:39:54;;;;;;;1.80;1.00;;;;;;;20.66;40.44;100069.81;5025258;28;20228;-92
2021/05/09 07:42:20;;;;;;;3.03;1.03;;;;;;;20.78;40.82;100065.69;5018337;28;20305;-92
2021/05/09 07:44:46;;;;;;;1.07;0.97;;;;;;;20.93;40.86;100063.09;5027733;28;20292;-93
2021/05/09 07:47:14;;;;;;;2.33;1.20;;;;;;;21.10;40.91;100063.84;5023336;28;20217;-91
2021/05/09 07:49:40;;;;;;;1.30;0.90;;;;;;;21.28;40.47;100056.31;5022016;28;20301;-91
2021/05/09 07:52:07;;;;;;;1.07;0.93;;;;;;;21.43;39.72;100059.91;5026520;28;20233;-91
2021/05/09 07:54:33;;;;;;;1.57;1.00;;;;;;;21.54;39.17;100055.06;5027393;28;20217;-91
2021/05/09 07:57:00;;;;;;;4.37;1.13;;;;;;;21.63;39.35;100052.13;5027741;28;20221;-91
2021/05/09 07:59:26;;;;;;;2.50;1.10;;;;;;;21.71;39.38;100040.34;5021877;28;20638;-91
2021/05/09 08:01:52;;;;;;;2.33;1.10;;;;;;;21.88;39.73;100038.31;5026300;28;20877;-91
2021/05/09 08:04:19;;;;;;;1.10;1.00;;;;;;;22.01;40.02;100038.59;5018421;28;20304;-91
2021/05/09 08:06:45;;;;;;;2.47;0.90;;;;;;;22.13;38.74;100042.50;5015434;28;20227;-91
2021/05/09 08:09:11;;;;;;;1.20;1.00;;;;;;;22.17;38.43;100047.38;5016289;28;20339;-91
2021/05/09 08:12:01;;;;;;;1.27;1.05;;;;;;;22.26;38.43;100041.84;5019175;28;20292;-92
2021/05/09 08:14:48;;;;;;;3.23;1.10;;;;;;;22.32;37.87;100038.41;5039411;28;20199;-92
2021/05/09 08:20:45;;;;;;;1.60;1.13;;;;;;;22.51;37.08;100049.53;4953380;28;20357;-91
2021/05/09 08:23:17;;;;;;;2.83;1.10;;;;;;;22.51;37.10;100037.81;5023406;28;20290;-91
2021/05/09 08:25:43;;;;;;;1.63;1.08;;;;;;;22.53;37.31;100027.63;5039353;28;20214;-92
2021/05/09 08:31:20;;;;;;;1.67;0.80;;;;;;;22.69;37.98;100013.84;5024823;28;20565;-91
2021/05/09 08:37:26;;;;;;;1.33;0.85;;;;;;;23.03;37.31;100006.94;5024637;28;20662;-89
2021/05/09 08:40:24;;;;;;;2.85;1.02;;;;;;;23.15;36.80;100002.66;5023145;28;20206;-89
2021/05/09 08:42:52;;;;;;;2.17;1.30;;;;;;;23.23;36.53;99999.81;5025786;28;20284;-90
2021/05/09 08:45:20;;;;;;;1.30;1.08;;;;;;;23.33;36.74;100005.75;5024585;28;20211;-91
2021/05/09 08:47:47;;;;;;;1.98;1.10;;;;;;;23.48;36.95;100008.38;5021512;28;20680;-90
2021/05/09 08:50:15;;;;;;;1.17;1.00;;;;;;;23.60;37.06;100004.16;5029332;28;20220;-90
2021/05/09 08:52:44;;;;;;;1.83;1.00;;;;;;;23.73;36.33;99997.97;5029134;28;20266;-90
2021/05/09 08:55:12;;;;;;;2.30;0.80;;;;;;;23.79;35.79;99987.16;5026079;28;20716;-89
2021/05/09 08:57:41;;;;;;;2.38;1.00;;;;;;;23.89;36.13;99989.50;5027868;28;20230;-90
2021/05/09 09:00:14;;;;;;;1.38;0.85;;;;;;;24.00;36.63;99988.97;5024248;28;20661;-90
2021/05/09 09:02:42;;;;;;;1.13;1.00;;;;;;;;;;5017483;28;20244;-89
2021/05/09 09:05:10;;;;;;;1.13;1.02;;;;;;;24.13;35.77;99980.88;5022758;28;20198;-90
2021/05/09 09:07:47;;;;;;;1.48;1.05;;;;;;;24.15;35.33;99976.06;5011237;28;20284;-88
2021/05/09 09:10:31;;;;;;;1.23;1.13;;;;;;;24.23;35.46;99981.34;5021756;28;20202;-89
2021/05/09 09:13:04;;;;;;;1.30;0.90;;;;;;;24.32;35.52;99981.19;5027508;28;20191;-90
2021/05/09 09:16:15;;;;;;;1.10;0.80;;;;;;;24.37;34.34;99978.69;5045200;28;20195;-91
2021/05/09 09:22:04;;;;;;;2.10;0.75;;;;;;;24.44;34.49;99965.97;4973747;28;20230;-89
2021/05/09 09:24:31;;;;;;;1.80;1.30;;;;;;;24.52;34.61;99963.06;5026693;28;20205;-89
2021/05/09 09:27:36;;;;;;;2.05;1.00;;;;;;;24.59;34.96;99955.75;5025137;28;20230;-90
2021/05/09 09:30:04;;;;;;;1.55;1.10;;;;;;;24.74;35.01;99964.59;5058148;22;20217;-67
2021/05/09 09:32:31;;;;;;;1.10;1.00;;;;;;;24.81;34.51;99957.28;5062199;28;20230;-65
2021/05/09 09:34:57;;;;;;;1.08;0.95;;;;;;;24.84;33.75;99954.16;5058437;28;20204;-65
2021/05/09 09:37:32;;;;;;;1.17;1.00;;;;;;;24.86;33.97;99948.50;5067935;28;20578;-64
2021/05/09 09:40:00;;;;;;;1.90;0.93;;;;;;;24.92;33.89;99948.50;5058911;28;20289;-64
2021/05/09 09:42:36;;;;;;;1.90;1.13;;;;;;;25.03;33.71;99941.66;5057632;28;20232;-64
2021/05/09 09:45:16;;;;;;;1.80;1.13;;;;;;;25.13;33.83;99933.03;5055213;28;20208;-65
2021/05/09 09:47:49;;;;;;;1.15;0.90;;;;;;;25.18;33.19;99925.09;5063308;28;20204;-65
2021/05/09 09:50:38;;;;;;;1.40;0.80;;;;;;;25.21;33.90;99922.78;5053838;28;20216;-64
2021/05/09 09:53:26;;;;;;;1.23;0.80;;;;;;;25.29;33.69;99910.81;5057188;28;20239;-64
2021/05/09 09:56:00;;;;;;;0.88;0.88;;;;;;;25.38;33.41;99909.56;5059524;28;20209;-64
2021/05/09 09:58:42;;;;;;;1.83;1.00;;;;;;;25.45;33.47;99906.81;5055765;28;20248;-66
2021/05/09 10:01:09;;;;;;;2.45;1.02;;;;;;;25.52;33.69;99905.78;5059597;28;20197;-64
2021/05/09 10:03:35;;;;;;;0.98;0.98;;;;;;;25.63;33.96;99906.19;5061193;28;20251;-64
2021/05/09 10:06:03;;;;;;;1.90;1.10;;;;;;;25.70;33.42;99894.22;5050505;28;20255;-65
2021/05/09 10:08:29;;;;;;;1.17;0.93;;;;;;;25.78;33.47;99893.19;5059705;28;20572;-67
2021/05/09 10:10:55;;;;;;;2.58;1.08;;;;;;;25.89;33.19;99896.06;5050692;28;20206;-65
2021/05/09 10:13:22;;;;;;;2.25;0.95;;;;;;;25.98;32.47;99893.94;5053763;28;20225;-65
2021/05/09 10:15:49;;;;;;;1.85;1.17;;;;;;;26.03;32.10;99882.38;5053608;28;20232;-65
2021/05/09 10:18:16;;;;;;;1.23;1.00;;;;;;;26.01;32.11;99888.03;5057517;28;20255;-64
2021/05/09 10:20:42;;;;;;;1.85;1.20;;;;;;;26.03;32.17;99874.19;5050883;28;20259;-64
2021/05/09 10:23:09;;;;;;;2.70;1.17;;;;;;;26.08;32.90;99885.31;5050439;28;20229;-65
2021/05/09 10:25:46;;;;;;;1.15;0.90;;;;;;;26.13;32.38;99875.44;5059264;28;20205;-64
2021/05/09 10:28:14;;;;;;;1.33;1.10;;;;;;;26.20;32.85;99878.94;5061918;28;20287;-66
2021/05/09 10:30:48;;;;;;;2.33;1.20;;;;;;;26.27;32.67;99876.19;5061144;28;20224;-64
2021/05/09 10:33:45;;;;;;;1.23;0.90;;;;;;;26.28;31.90;99867.78;5059387;28;20412;-64
2021/05/09 10:36:27;;;;;;;0.82;0.82;;;;;;;26.27;32.64;99860.66;5060395;28;20239;-63
2021/05/09 10:39:16;;;;;;;1.00;0.90;;;;;;;26.35;33.26;99867.75;5061793;28;20204;-62
2021/05/09 10:42:18;;;;;;;1.42;0.90;;;;;;;26.45;33.75;99861.84;5059281;28;20208;-64
2021/05/09 10:44:48;;;;;;;2.13;1.27;;;;;;;26.53;33.56;99858.84;5059970;28;20260;-64
2021/05/09 10:47:19;;;;;;;2.88;1.33;;;;;;;26.59;33.89;99864.25;5057009;28;20289;-65
2021/05/09 10:50:24;;;;;;;1.38;1.15;;;;;;;26.68;33.84;99866.75;5056440;28;20295;-65
2021/05/09 10:52:52;;;;;;;1.88;1.13;;;;;;;26.73;33.95;99862.28;5053886;28;20319;-65
2021/05/09 10:55:54;;;;;;;1.92;1.30;;;;;;;26.84;34.19;99858.00;5054169;28;20200;-65
2021/05/09 10:58:46;;;;;;;2.00;1.05;;;;;;;26.92;34.14;99855.00;5054950;28;20219;-65
2021/05/09 11:01:22;;;;;;;3.28;1.02;;;;;;;26.95;34.40;99844.47;5053095;28;20589;-66
2021/05/09 11:03:53;;;;;;;1.85;1.00;;;;;;;27.03;34.69;99848.00;5049974;28;20680;-65
2021/05/09 11:06:21;;;;;;;1.48;1.15;;;;;;;27.04;33.65;99845.06;5052949;28;20197;-64
2021/05/09 11:08:58;;;;;;;2.17;1.20;;;;;;;27.00;33.53;99838.34;5053052;28;20197;-67
2021/05/09 11:12:01;;;;;;;0.98;0.90;;;;;;;26.96;34.70;99837.97;5055012;28;20776;-70
2021/05/09 11:14:33;;;;;;;2.30;1.33;;;;;;;26.99;34.33;99833.94;5058986;28;20231;-72
2021/05/09 11:17:17;;;;;;;2.30;1.30;;;;;;;27.02;34.55;99833.50;5057777;28;20200;-67
2021/05/09 11:19:47;;;;;;;2.28;1.20;;;;;;;27.09;34.22;99825.22;5058857;28;20196;-67
2021/05/09 11:22:17;;;;;;;3.25;1.40;;;;;;;27.14;34.49;99823.50;5068639;28;20197;-68
2021/05/09 11:24:43;;;;;;;2.85;1.08;;;;;;;27.21;34.60;99818.81;5070770;28;20217;-68
2021/05/09 11:27:12;;;;;;;1.30;1.20;;;;;;;27.23;34.27;99807.66;5071063;28;20220;-68
2021/05/09 11:29:41;;;;;;;2.03;1.30;;;;;;;27.28;33.61;99810.53;5057659;28;20471;-67
2021/05/09 11:32:10;;;;;;;1.23;1.02;;;;;;;27.30;33.66;99811.16;5052681;28;20270;-67
2021/05/09 11:34:36;;;;;;;1.58;1.38;;;;;;;27.31;33.73;99801.88;5061547;28;20208;-66
2021/05/09 11:37:03;;;;;;;1.63;1.15;;;;;;;27.35;33.33;99788.59;5070393;28;20196;-67
2021/05/09 11:39:37;;;;;;;1.42;1.20;;;;;;;27.40;33.60;99794.25;5071026;28;20875;-68
2021/05/09 11:42:06;;;;;;;1.60;1.20;;;;;;;27.43;33.43;99789.13;5067651;28;20692;-67
2021/05/09 11:44:37;;;;;;;2.13;1.00;;;;;;;27.45;33.31;99786.16;5063797;28;20224;-68
2021/05/09 11:47:06;;;;;;;1.27;1.17;;;;;;;27.48;32.59;99778.34;5069093;28;20201;-67
2021/05/09 11:49:34;;;;;;;1.98;1.10;;;;;;;27.53;33.77;99777.66;5061157;28;20209;-67